Time;durP1;ratioP1;P1;durP2;ratioP2;P2;SDS_P1;SDS_P2;PMS_P1;PMS_P2;Temp;Humidity;BMP_temperature;BMP_pressure;BME280_temperature;BME280_humidity;BME280_pressure;Samples;Min_cycle;Max_cycle;Signal;HPM_P1;HPM_P2
2022/07/12 00:01:08;;;;;;;2.15;0.70;;;20.70;92.00;;;;;;5031774;28;20040;-66
2022/07/12 00:03:34;;;;;;;1.92;1.00;;;20.70;92.10;;;;;;5032104;28;20049;-67
2022/07/12 00:06:01;;;;;;;1.15;0.70;;;20.70;92.20;;;;;;5031809;28;20049;-67
2022/07/12 00:08:27;;;;;;;2.00;1.00;;;20.60;92.30;;;;;;5032248;28;20037;-67
2022/07/12 00:10:53;;;;;;;1.92;0.80;;;20.60;92.30;;;;;;5032271;28;20442;-66
2022/07/12 00:13:19;;;;;;;1.30;0.88;;;20.60;92.30;;;;;;5032116;28;20369;-66
2022/07/12 00:15:45;;;;;;;1.65;0.80;;;20.60;92.40;;;;;;5032172;28;20512;-66
2022/07/12 00:18:11;;;;;;;1.20;0.80;;;20.40;92.20;;;;;;5032276;28;20052;-69
2022/07/12 00:20:37;;;;;;;2.38;0.68;;;20.50;92.70;;;;;;5032492;28;20041;-66
2022/07/12 00:23:03;;;;;;;2.35;0.82;;;20.40;92.40;;;;;;5032311;28;20073;-67
2022/07/12 00:25:29;;;;;;;1.45;0.50;;;20.20;92.90;;;;;;5032055;28;20068;-66
2022/07/12 00:27:55;;;;;;;2.50;0.90;;;20.20;92.90;;;;;;5032046;28;20052;-66
2022/07/12 00:30:22;;;;;;;3.70;0.82;;;20.00;93.20;;;;;;5031784;28;20045;-67
2022/07/12 00:32:48;;;;;;;2.83;0.80;;;20.00;93.00;;;;;;5031285;28;20132;-66
2022/07/12 00:35:15;;;;;;;1.60;1.08;;;20.00;93.00;;;;;;5030801;28;20099;-66
2022/07/12 00:37:41;;;;;;;1.42;0.68;;;20.10;93.00;;;;;;5034746;28;20099;-74
2022/07/12 00:40:09;;;;;;;2.67;0.88;;;20.00;93.40;;;;;;5035352;28;20515;-66
2022/07/12 00:42:36;;;;;;;1.45;0.70;;;19.90;93.30;;;;;;5035390;28;20038;-67
2022/07/12 00:45:03;;;;;;;1.52;0.85;;;19.80;93.30;;;;;;5035409;28;20084;-67
2022/07/12 00:47:49;;;;;;;1.67;0.90;;;20.00;93.10;;;;;;5035167;28;20516;-66
2022/07/12 00:50:21;;;;;;;5.93;0.95;;;19.90;93.00;;;;;;5019695;28;20042;-66
2022/07/12 00:52:48;;;;;;;0.73;0.70;;;20.00;93.30;;;;;;5035269;28;20037;-66
2022/07/12 00:55:15;;;;;;;1.38;0.90;;;19.90;93.20;;;;;;5034998;28;20120;-66
2022/07/12 00:57:46;;;;;;;0.90;0.80;;;19.90;92.90;;;;;;5034894;28;20041;-66
2022/07/12 01:00:14;;;;;;;2.55;0.70;;;19.90;92.80;;;;;;5035121;28;20415;-66
2022/07/12 01:02:41;;;;;;;1.38;0.80;;;20.00;92.70;;;;;;5034660;28;20135;-66
2022/07/12 01:05:08;;;;;;;4.85;1.05;;;20.00;93.00;;;;;;5016859;28;20050;-66
2022/07/12 01:07:34;;;;;;;1.70;0.70;;;19.90;92.90;;;;;;5035055;28;20049;-66
2022/07/12 01:10:01;;;;;;;1.02;0.88;;;19.80;92.80;;;;;;5034862;28;20077;-66
2022/07/12 01:12:27;;;;;;;1.63;0.60;;;20.10;91.80;;;;;;5034888;28;20581;-67
2022/07/12 01:14:53;;;;;;;2.00;1.10;;;20.40;91.20;;;;;;5034172;28;20038;-66
2022/07/12 01:17:21;;;;;;;1.15;0.65;;;;;;;;;;5034783;28;20049;-68
2022/07/12 01:19:48;;;;;;;2.85;0.60;;;19.80;92.10;;;;;;5015369;28;20053;-66
2022/07/12 01:22:16;;;;;;;1.17;0.50;;;20.10;92.00;;;;;;5014996;28;20046;-66
2022/07/12 01:24:43;;;;;;;1.83;0.70;;;20.20;92.10;;;;;;5020261;28;20424;-66
2022/07/12 01:27:10;;;;;;;1.00;0.80;;;19.90;92.40;;;;;;5034813;28;20567;-66
2022/07/12 01:29:36;;;;;;;1.67;0.68;;;20.00;91.80;;;;;;5034696;28;20041;-66
2022/07/12 01:34:56;;;;;;;1.35;0.65;;;20.00;92.30;;;;;;5034131;28;20040;-66
2022/07/12 01:37:25;;;;;;;1.27;0.80;;;19.90;92.40;;;;;;5033922;28;20144;-67
2022/07/12 01:39:53;;;;;;;2.17;0.70;;;20.00;92.20;;;;;;5034400;28;20041;-66
2022/07/12 01:42:23;;;;;;;1.45;0.63;;;19.90;92.40;;;;;;5034125;28;20045;-66
2022/07/12 01:44:50;;;;;;;2.67;1.05;;;19.90;92.30;;;;;;5034028;28;20483;-67
2022/07/12 01:47:17;;;;;;;1.88;0.80;;;19.70;93.00;;;;;;5033981;28;20056;-66
2022/07/12 01:49:43;;;;;;;2.33;0.93;;;19.80;92.60;;;;;;5033052;28;20040;-66
2022/07/12 01:52:09;;;;;;;1.08;0.70;;;19.90;92.00;;;;;;5034197;28;20049;-66
2022/07/12 01:54:35;;;;;;;2.38;1.08;;;19.80;92.80;;;;;;5034340;28;20500;-67
2022/07/12 01:57:02;;;;;;;1.90;0.70;;;19.60;92.70;;;;;;5032579;28;20056;-66
2022/07/12 01:59:29;;;;;;;1.77;0.95;;;19.70;92.80;;;;;;5033479;28;20048;-66
2022/07/12 02:01:56;;;;;;;1.48;0.82;;;19.60;92.70;;;;;;5020696;28;20029;-66
2022/07/12 02:04:22;;;;;;;3.50;1.10;;;19.60;92.90;;;;;;5033219;28;20120;-66
2022/07/12 02:06:48;;;;;;;1.55;0.60;;;19.40;93.10;;;;;;5034038;28;20124;-66
2022/07/12 02:09:14;;;;;;;1.58;0.90;;;19.50;92.90;;;;;;5033326;28;20060;-66
2022/07/12 02:11:41;;;;;;;0.95;0.80;;;19.60;92.90;;;;;;5033796;28;20041;-66
2022/07/12 02:14:08;;;;;;;1.30;1.15;;;19.50;93.30;;;;;;5030398;28;20045;-66
2022/07/12 02:16:33;;;;;;;1.20;0.90;;;19.50;92.90;;;;;;5034014;28;20048;-66
2022/07/12 02:19:00;;;;;;;0.80;0.60;;;19.60;92.80;;;;;;5033467;28;20037;-67
2022/07/12 02:21:25;;;;;;;1.85;0.73;;;19.50;93.20;;;;;;5033487;28;20049;-66
2022/07/12 02:23:51;;;;;;;3.30;0.93;;;19.50;93.00;;;;;;5033650;28;20045;-66
2022/07/12 02:26:17;;;;;;;1.15;0.60;;;19.40;93.40;;;;;;5032894;28;20045;-66
2022/07/12 02:28:43;;;;;;;2.97;1.08;;;19.20;94.10;;;;;;5033289;28;20037;-67
2022/07/12 02:31:09;;;;;;;1.73;0.80;;;19.10;94.20;;;;;;5033380;28;20056;-67
2022/07/12 02:33:35;;;;;;;2.85;0.60;;;19.20;94.10;;;;;;5033357;28;20087;-66
2022/07/12 02:36:01;;;;;;;1.27;0.80;;;19.20;94.50;;;;;;5033148;28;20025;-67
2022/07/12 02:38:28;;;;;;;1.27;0.70;;;19.10;94.00;;;;;;5033136;28;20076;-66
2022/07/12 02:40:53;;;;;;;3.92;0.98;;;19.20;94.20;;;;;;5033236;28;20071;-66
2022/07/12 02:43:20;;;;;;;5.20;0.70;;;19.40;93.40;;;;;;5033246;28;20564;-66
2022/07/12 02:45:46;;;;;;;1.77;0.95;;;19.20;94.00;;;;;;5033224;28;20523;-66
2022/07/12 02:48:12;;;;;;;1.20;0.88;;;18.70;94.50;;;;;;5032776;28;20148;-66
2022/07/12 02:50:41;;;;;;;2.45;0.90;;;18.60;95.00;;;;;;5033060;28;20041;-69
2022/07/12 02:53:08;;;;;;;2.45;0.80;;;18.60;95.20;;;;;;5016927;28;20037;-66
2022/07/12 02:55:34;;;;;;;1.58;0.75;;;18.60;95.00;;;;;;5033278;28;20063;-66
2022/07/12 02:58:00;;;;;;;3.17;0.75;;;18.70;95.10;;;;;;5032517;28;20474;-67
2022/07/12 03:00:26;;;;;;;1.15;0.60;;;18.60;95.20;;;;;;5032448;28;20029;-66
2022/07/12 03:02:53;;;;;;;1.13;0.70;;;18.60;95.10;;;;;;5032649;28;20045;-66
2022/07/12 03:05:19;;;;;;;2.78;0.60;;;18.50;95.40;;;;;;5032771;28;20086;-66
2022/07/12 03:07:44;;;;;;;1.25;0.90;;;18.60;95.40;;;;;;5032143;28;20084;-66
2022/07/12 03:10:10;;;;;;;2.13;1.08;;;18.70;95.30;;;;;;5032141;28;20563;-67
2022/07/12 03:12:37;;;;;;;6.30;1.02;;;19.00;94.80;;;;;;5032818;28;20183;-66
2022/07/12 03:15:04;;;;;;;1.02;0.82;;;19.20;94.60;;;;;;5032931;28;20041;-66
2022/07/12 03:17:29;;;;;;;1.58;1.15;;;19.30;94.50;;;;;;5032254;28;20030;-66
2022/07/12 03:19:55;;;;;;;6.13;1.13;;;19.30;94.60;;;;;;5032384;28;20045;-66
2022/07/12 03:22:21;;;;;;;1.27;0.70;;;19.10;94.70;;;;;;5032899;28;20472;-66
2022/07/12 03:24:46;;;;;;;1.95;0.95;;;19.10;95.00;;;;;;5032952;28;20095;-67
2022/07/12 03:27:12;;;;;;;4.05;1.02;;;19.20;94.80;;;;;;5032897;28;20045;-67
2022/07/12 03:29:39;;;;;;;14.57;2.33;;;19.10;95.20;;;;;;5032154;28;20467;-66
2022/07/12 03:32:06;;;;;;;40.10;5.45;;;18.90;95.60;;;;;;5032448;28;20037;-67
2022/07/12 03:34:32;;;;;;;24.67;4.43;;;18.50;96.30;;;;;;5032550;28;20059;-66
2022/07/12 03:36:58;;;;;;;61.08;7.82;;;18.30;96.90;;;;;;5032318;28;20037;-69
2022/07/12 03:39:24;;;;;;;17.38;3.10;;;18.00;98.10;;;;;;5032233;28;20041;-66
2022/07/12 03:41:50;;;;;;;7.13;1.70;;;17.80;98.60;;;;;;5032169;28;20061;-74
2022/07/12 03:44:15;;;;;;;6.68;1.65;;;17.80;99.00;;;;;;5032405;28;20052;-67
2022/07/12 03:46:41;;;;;;;60.35;8.88;;;17.80;99.40;;;;;;5032609;28;20132;-70
2022/07/12 03:49:08;;;;;;;126.35;18.05;;;17.90;99.90;;;;;;5032581;28;20493;-67
2022/07/12 03:51:33;;;;;;;71.55;11.52;;;18.00;99.90;;;;;;5032474;28;20040;-66
2022/07/12 03:53:59;;;;;;;7.25;1.90;;;17.90;99.90;;;;;;5031947;28;20038;-68
2022/07/12 03:59:10;;;;;;;5.72;1.73;;;17.50;99.90;;;;;;5032289;28;20393;-67
2022/07/12 04:01:35;;;;;;;4.15;1.13;;;17.30;99.90;;;;;;5032232;28;20037;-66
2022/07/12 04:04:02;;;;;;;2.65;1.25;;;17.20;99.90;;;;;;5031826;28;20179;-66
2022/07/12 04:06:28;;;;;;;2.10;1.13;;;17.20;99.90;;;;;;5031687;28;20069;-74
2022/07/12 04:08:54;;;;;;;1.75;1.10;;;17.20;99.90;;;;;;5032459;28;20365;-66
2022/07/12 04:11:20;;;;;;;3.42;1.30;;;17.30;99.90;;;;;;5032203;28;20048;-66
2022/07/12 04:13:45;;;;;;;4.70;1.25;;;17.30;99.90;;;;;;5035364;28;20049;-66
2022/07/12 04:16:12;;;;;;;4.70;1.23;;;17.30;99.90;;;;;;5036053;28;20064;-72
2022/07/12 04:18:38;;;;;;;2.28;1.05;;;17.60;99.90;;;;;;5036346;28;20088;-66
2022/07/12 04:21:04;;;;;;;5.18;1.17;;;17.60;99.90;;;;;;5035956;28;20140;-66
2022/07/12 04:23:30;;;;;;;6.20;1.50;;;17.80;99.90;;;;;;5035566;28;20554;-66
2022/07/12 04:25:56;;;;;;;5.55;1.38;;;17.90;99.90;;;;;;5034004;28;20069;-73
2022/07/12 04:28:23;;;;;;;3.78;1.65;;;18.00;99.90;;;;;;5021796;28;20068;-66
2022/07/12 04:30:49;;;;;;;2.20;1.40;;;17.70;99.90;;;;;;5028652;28;20041;-66
2022/07/12 04:33:15;;;;;;;2.90;1.30;;;17.50;99.90;;;;;;5035994;28;20036;-67
2022/07/12 04:35:41;;;;;;;15.18;1.85;;;17.30;99.90;;;;;;5035306;28;20049;-66
2022/07/12 04:38:08;;;;;;;1.88;1.38;;;;;;;;;;5035634;28;20045;-66
2022/07/12 04:40:34;;;;;;;3.83;1.40;;;16.90;99.90;;;;;;5035483;28;20060;-66
2022/07/12 04:42:59;;;;;;;1.98;1.33;;;16.80;99.90;;;;;;5035388;28;20037;-67
2022/07/12 04:45:25;;;;;;;2.08;1.17;;;17.00;99.90;;;;;;5035134;28;20102;-66
2022/07/12 04:47:51;;;;;;;3.78;0.98;;;17.20;99.90;;;;;;5035631;28;20049;-66
2022/07/12 04:50:17;;;;;;;2.55;1.27;;;17.30;99.90;;;;;;5035545;28;20044;-66
2022/07/12 04:52:42;;;;;;;2.67;1.05;;;17.50;99.90;;;;;;5034950;28;20041;-66
2022/07/12 04:55:09;;;;;;;5.95;1.20;;;17.70;99.90;;;;;;5034647;28;20440;-65
2022/07/12 04:57:35;;;;;;;4.40;1.00;;;17.80;99.90;;;;;;5035027;28;20045;-66
2022/07/12 05:00:01;;;;;;;1.35;0.95;;;17.90;99.90;;;;;;5034426;28;20060;-66
2022/07/12 05:02:27;;;;;;;1.25;0.77;;;18.10;99.90;;;;;;5035220;28;20033;-66
2022/07/12 05:04:52;;;;;;;1.42;0.90;;;18.10;99.90;;;;;;5034913;28;20044;-66
2022/07/12 05:07:19;;;;;;;3.33;0.88;;;18.10;99.90;;;;;;5034927;28;20057;-66
2022/07/12 05:09:44;;;;;;;3.20;1.15;;;18.20;99.90;;;;;;5034633;28;20042;-66
2022/07/12 05:12:10;;;;;;;4.75;1.17;;;18.30;99.90;;;;;;5035051;28;20061;-66
2022/07/12 05:14:36;;;;;;;3.88;1.13;;;18.40;99.90;;;;;;5034856;28;20045;-66
2022/07/12 05:17:01;;;;;;;1.55;0.77;;;18.50;99.90;;;;;;5034611;28;20065;-66
2022/07/12 05:19:27;;;;;;;2.83;1.30;;;18.70;99.90;;;;;;5017277;28;20080;-66
2022/07/12 05:21:53;;;;;;;1.63;1.00;;;18.80;99.90;;;;;;5034839;28;20413;-66
2022/07/12 05:24:19;;;;;;;3.65;1.40;;;18.90;99.90;;;;;;5033430;28;20467;-66
2022/07/12 05:26:44;;;;;;;1.45;1.00;;;19.00;99.90;;;;;;5034687;28;20147;-66
2022/07/12 05:29:10;;;;;;;6.78;1.48;;;19.20;99.90;;;;;;5034674;28;20065;-66
2022/07/12 05:31:36;;;;;;;5.15;1.20;;;19.40;99.90;;;;;;5034549;28;20037;-65
2022/07/12 05:34:02;;;;;;;6.20;1.20;;;19.40;99.90;;;;;;5033473;28;20068;-77
2022/07/12 05:36:28;;;;;;;7.30;1.20;;;19.50;99.90;;;;;;5033923;28;20029;-66
2022/07/12 05:38:54;;;;;;;4.35;1.20;;;19.70;99.90;;;;;;5033289;28;20124;-66
2022/07/12 05:41:19;;;;;;;3.58;1.17;;;20.00;99.90;;;;;;5034792;28;20124;-66
2022/07/12 05:43:45;;;;;;;6.70;1.10;;;20.20;99.90;;;;;;5033926;28;20525;-66
2022/07/12 05:46:11;;;;;;;2.45;1.20;;;20.40;99.90;;;;;;5034071;28;20071;-66
2022/07/12 05:48:37;;;;;;;9.43;1.75;;;20.10;99.90;;;;;;5034575;28;20412;-66
2022/07/12 05:53:47;;;;;;;3.33;1.15;;;19.40;99.90;;;;;;5034348;28;20101;-66
2022/07/12 05:56:13;;;;;;;3.03;1.25;;;19.50;99.90;;;;;;5033807;28;20033;-69
2022/07/12 05:58:39;;;;;;;4.10;1.05;;;19.80;99.90;;;;;;5034507;28;20048;-66
2022/07/12 06:01:05;;;;;;;2.95;1.20;;;20.70;99.90;;;;;;5034198;28;20067;-66
2022/07/12 06:03:31;;;;;;;4.70;1.23;;;20.90;99.90;;;;;;5033766;28;20053;-66
2022/07/12 06:05:57;;;;;;;3.08;1.10;;;21.40;99.90;;;;;;5033664;28;20044;-72
2022/07/12 06:08:23;;;;;;;5.45;1.23;;;21.60;98.90;;;;;;5034120;28;20049;-67
2022/07/12 06:10:49;;;;;;;7.43;1.63;;;22.00;98.70;;;;;;5033931;28;20516;-66
2022/07/12 06:13:15;;;;;;;3.63;1.10;;;22.40;97.90;;;;;;5034192;28;20037;-66
2022/07/12 06:15:40;;;;;;;3.40;1.35;;;22.00;97.90;;;;;;5033557;28;20080;-66
2022/07/12 06:18:06;;;;;;;6.68;1.10;;;21.60;99.90;;;;;;5033751;28;20095;-66
2022/07/12 06:20:32;;;;;;;3.08;1.10;;;22.10;99.90;;;;;;5033382;28;20120;-67
2022/07/12 06:22:58;;;;;;;4.40;1.13;;;22.40;98.60;;;;;;5033739;28;20159;-66
2022/07/12 06:25:24;;;;;;;4.13;1.25;;;22.70;98.30;;;;;;5033196;28;20107;-67
2022/07/12 06:27:50;;;;;;;2.20;0.93;;;22.90;98.20;;;;;;5033418;28;20456;-67
2022/07/12 06:30:20;;;;;;;3.10;1.27;;;22.90;98.50;;;;;;5033636;28;20083;-66
2022/07/12 06:32:48;;;;;;;3.45;1.40;;;22.80;98.60;;;;;;5033107;28;20041;-66
2022/07/12 06:35:14;;;;;;;2.67;1.52;;;23.00;98.70;;;;;;5032623;28;20069;-66
2022/07/12 06:37:41;;;;;;;9.05;1.30;;;23.10;98.00;;;;;;5033201;28;20061;-66
2022/07/12 06:40:07;;;;;;;2.42;1.27;;;23.20;97.80;;;;;;5033013;28;20032;-74
2022/07/12 06:42:34;;;;;;;4.57;1.40;;;23.30;98.00;;;;;;5032765;28;20045;-66
2022/07/12 06:45:00;;;;;;;3.28;1.50;;;23.40;97.90;;;;;;5033207;28;20029;-67
2022/07/12 06:47:26;;;;;;;3.90;1.10;;;23.50;97.40;;;;;;5032772;28;20095;-66
2022/07/12 06:49:52;;;;;;;1.40;0.93;;;23.60;97.00;;;;;;5032702;28;20504;-66
2022/07/12 06:52:18;;;;;;;2.33;1.17;;;23.60;96.60;;;;;;5032875;28;20060;-66
2022/07/12 06:54:44;;;;;;;1.02;0.90;;;23.90;94.80;;;;;;5033467;28;20037;-66
2022/07/12 06:57:10;;;;;;;3.42;0.95;;;24.10;94.60;;;;;;5032773;28;20049;-66
2022/07/12 06:59:36;;;;;;;1.75;1.02;;;23.90;95.30;;;;;;5032695;28;20045;-66
2022/07/12 07:02:02;;;;;;;2.60;1.00;;;24.10;94.90;;;;;;5032656;28;20833;-66
2022/07/12 07:04:28;;;;;;;1.70;0.80;;;24.50;95.00;;;;;;5033158;28;20114;-66
2022/07/12 07:06:53;;;;;;;1.63;1.00;;;24.50;95.40;;;;;;5031042;28;20053;-66
2022/07/12 07:09:19;;;;;;;2.03;1.02;;;24.50;95.50;;;;;;5032331;28;20044;-67
2022/07/12 07:11:45;;;;;;;3.10;1.20;;;24.70;93.60;;;;;;5032872;28;20050;-66
2022/07/12 07:14:11;;;;;;;2.33;0.90;;;24.80;93.60;;;;;;5032572;28;20037;-66
2022/07/12 07:16:37;;;;;;;2.85;1.02;;;24.90;92.90;;;;;;5033374;28;20049;-66
2022/07/12 07:19:03;;;;;;;3.13;1.08;;;24.10;93.50;;;;;;5032557;28;20030;-66
2022/07/12 07:21:29;;;;;;;2.67;1.42;;;24.90;94.10;;;;;;5032303;28;20570;-75
2022/07/12 07:23:55;;;;;;;4.75;1.27;;;25.00;94.50;;;;;;5031752;28;20125;-67
2022/07/12 07:26:22;;;;;;;7.53;1.10;;;25.00;93.40;;;;;;5032658;28;20060;-66
2022/07/12 07:31:38;;;;;;;2.42;1.55;;;25.40;94.20;;;;;;5032423;28;20447;-66
2022/07/12 07:34:04;;;;;;;2.72;1.00;;;25.50;94.20;;;;;;5032398;28;20045;-67
2022/07/12 07:36:30;;;;;;;2.38;1.10;;;25.90;93.50;;;;;;5032449;28;20124;-66
2022/07/12 07:38:58;;;;;;;2.00;1.30;;;25.00;92.30;;;;;;5031462;28;20038;-66
2022/07/12 07:41:23;;;;;;;6.30;1.33;;;25.40;92.30;;;;;;5032435;28;20396;-66
2022/07/12 07:43:49;;;;;;;3.45;1.30;;;25.50;93.30;;;;;;5032762;28;20048;-66
2022/07/12 07:46:15;;;;;;;3.55;1.20;;;25.50;92.10;;;;;;5032328;28;20042;-66
2022/07/12 07:48:41;;;;;;;8.45;1.40;;;25.80;94.10;;;;;;5036453;28;20155;-67
2022/07/12 07:51:06;;;;;;;1.65;0.90;;;26.20;93.60;;;;;;5036532;28;20041;-67
2022/07/12 07:53:32;;;;;;;3.20;0.80;;;25.60;91.70;;;;;;5036430;28;20508;-66
2022/07/12 07:55:58;;;;;;;2.60;1.15;;;25.60;92.60;;;;;;5036306;28;20042;-67
2022/07/12 07:58:24;;;;;;;3.08;1.00;;;25.00;91.70;;;;;;5036104;28;20033;-66
2022/07/12 08:00:50;;;;;;;2.70;1.10;;;25.00;92.00;;;;;;5036063;28;20056;-66
2022/07/12 08:03:17;;;;;;;2.58;0.85;;;25.10;91.80;;;;;;5036550;28;20365;-66
2022/07/12 08:05:43;;;;;;;1.70;0.77;;;25.80;92.10;;;;;;5035579;28;20045;-67
2022/07/12 08:08:09;;;;;;;3.85;1.10;;;25.70;91.10;;;;;;5035732;28;20568;-66
2022/07/12 08:10:34;;;;;;;1.85;1.00;;;26.20;92.40;;;;;;5035743;28;20041;-66
2022/07/12 08:13:00;;;;;;;4.82;0.90;;;26.00;90.40;;;;;;5035862;28;20046;-66
2022/07/12 08:15:27;;;;;;;2.60;1.00;;;25.30;90.10;;;;;;5036583;28;20037;-67
2022/07/12 08:17:52;;;;;;;2.75;0.95;;;25.80;91.20;;;;;;5044619;28;20362;-67
2022/07/12 08:20:19;;;;;;;3.67;1.10;;;26.00;90.40;;;;;;5032977;28;20087;-66
2022/07/12 08:22:45;;;;;;;1.88;1.13;;;25.40;90.90;;;;;;5035950;28;20037;-66
2022/07/12 08:25:12;;;;;;;2.80;1.05;;;24.90;90.50;;;;;;5035407;28;20048;-66
2022/07/12 08:27:39;;;;;;;1.88;0.90;;;25.10;90.90;;;;;;5035453;28;20049;-68
2022/07/12 08:30:06;;;;;;;3.13;0.80;;;25.20;91.00;;;;;;5036012;28;20034;-67
2022/07/12 08:32:32;;;;;;;3.33;1.00;;;24.70;90.00;;;;;;5035406;28;20045;-67
2022/07/12 08:34:58;;;;;;;5.93;0.90;;;24.50;90.80;;;;;;5035756;28;20052;-80
2022/07/12 08:37:24;;;;;;;1.15;0.98;;;24.30;90.50;;;;;;5035237;28;20738;-75
2022/07/12 08:39:49;;;;;;;2.35;1.10;;;24.80;91.30;;;;;;5035469;28;20037;-68
2022/07/12 08:42:18;;;;;;;9.23;1.85;;;24.60;91.30;;;;;;5035291;28;20188;-67
2022/07/12 08:44:44;;;;;;;1.83;1.10;;;24.60;90.70;;;;;;5035530;28;20103;-71
2022/07/12 08:47:10;;;;;;;3.97;1.20;;;24.80;91.30;;;;;;5035023;28;20613;-67
2022/07/12 08:49:37;;;;;;;5.45;1.48;;;25.40;91.50;;;;;;5035588;28;20045;-74
2022/07/12 08:52:26;;;;;;;2.55;0.80;;;24.90;89.40;;;;;;5035227;28;20176;-66
2022/07/12 08:54:52;;;;;;;4.60;1.30;;;25.70;91.00;;;;;;5034468;28;20041;-66
2022/07/12 08:57:31;;;;;;;3.22;1.40;;;25.50;90.10;;;;;;5035019;28;20041;-67
2022/07/12 09:00:01;;;;;;;3.30;1.10;;;25.30;90.60;;;;;;5035256;28;20514;-73
2022/07/12 09:02:28;;;;;;;1.95;1.15;;;25.40;90.80;;;;;;5034816;28;20051;-70
2022/07/12 09:05:07;;;;;;;3.15;1.20;;;25.70;91.70;;;;;;5035681;28;20056;-67
2022/07/12 09:07:36;;;;;;;3.50;1.23;;;25.50;90.70;;;;;;5035143;28;20057;-67
2022/07/12 09:10:06;;;;;;;2.80;1.30;;;25.30;90.20;;;;;;5044962;28;20414;-68
2022/07/12 09:12:36;;;;;;;1.45;1.20;;;25.70;90.80;;;;;;5046979;28;20492;-69
2022/07/12 09:15:12;;;;;;;2.88;1.48;;;25.30;90.60;;;;;;5035111;28;20148;-66
2022/07/12 09:17:38;;;;;;;2.25;1.13;;;25.10;90.30;;;;;;5034929;28;20604;-67
2022/07/12 09:20:04;;;;;;;4.82;1.40;;;25.30;90.60;;;;;;5034940;28;20563;-68
2022/07/12 09:22:30;;;;;;;2.78;1.42;;;25.70;91.10;;;;;;5047697;28;20083;-66
2022/07/12 09:24:56;;;;;;;2.55;1.00;;;25.80;91.30;;;;;;5042120;28;20485;-66
2022/07/12 09:27:26;;;;;;;4.05;1.15;;;25.50;90.50;;;;;;5054760;28;20048;-67
2022/07/12 09:29:52;;;;;;;3.78;1.27;;;25.40;90.90;;;;;;5044211;28;20037;-66
2022/07/12 09:37:50;;;;;;;2.97;1.20;;;25.30;90.90;;;;;;5053825;28;20036;-73
2022/07/12 09:40:17;;;;;;;4.38;1.70;;;25.20;90.90;;;;;;5034519;28;20045;-68
2022/07/12 09:42:43;;;;;;;3.63;1.00;;;25.20;90.20;;;;;;5016797;28;20403;-67
2022/07/12 09:45:10;;;;;;;4.85;1.10;;;25.40;90.80;;;;;;5034633;28;20052;-67
2022/07/12 09:47:36;;;;;;;4.30;1.02;;;25.70;90.20;;;;;;5034438;28;20052;-67
2022/07/12 09:50:04;;;;;;;1.58;1.02;;;25.40;90.20;;;;;;5033155;28;20029;-73
2022/07/12 09:52:32;;;;;;;1.10;1.00;;;25.60;90.20;;;;;;5033501;28;20519;-67
2022/07/12 09:55:01;;;;;;;2.70;1.05;;;25.70;90.40;;;;;;5024285;28;20111;-67
2022/07/12 09:57:32;;;;;;;1.30;1.10;;;25.80;89.90;;;;;;5029166;28;20055;-67
2022/07/12 09:59:59;;;;;;;3.45;1.10;;;25.90;90.00;;;;;;5031576;28;20033;-68
2022/07/12 10:02:26;;;;;;;2.03;0.80;;;25.90;89.20;;;;;;5031839;28;20048;-67
2022/07/12 10:04:52;;;;;;;1.77;1.10;;;25.90;85.10;;;;;;5032355;28;20128;-66
2022/07/12 10:07:18;;;;;;;2.25;1.08;;;26.00;87.20;;;;;;5031704;28;20082;-67
2022/07/12 10:09:48;;;;;;;1.38;1.23;;;26.60;88.90;;;;;;5030980;28;20164;-68
2022/07/12 10:12:18;;;;;;;3.70;0.93;;;26.50;88.00;;;;;;5029995;28;20103;-67
2022/07/12 10:14:45;;;;;;;2.88;0.95;;;26.30;87.00;;;;;;5031596;28;20316;-67
2022/07/12 10:17:12;;;;;;;0.88;0.80;;;26.50;87.50;;;;;;5031086;28;20063;-66
2022/07/12 10:19:39;;;;;;;1.65;1.08;;;26.40;86.50;;;;;;5033442;28;20091;-68
2022/07/12 10:22:07;;;;;;;5.47;1.15;;;26.40;87.40;;;;;;5033639;28;20072;-67
2022/07/12 10:24:33;;;;;;;5.47;0.75;;;26.50;87.30;;;;;;5031847;28;20064;-67
2022/07/12 10:27:20;;;;;;;4.28;0.93;;;26.30;84.60;;;;;;5031519;28;20089;-67
2022/07/12 10:30:16;;;;;;;2.55;0.90;;;26.60;83.40;;;;;;5033422;28;20397;-77
2022/07/12 10:32:43;;;;;;;1.15;0.75;;;26.20;84.00;;;;;;5036677;28;20040;-69
2022/07/12 10:35:18;;;;;;;0.90;0.60;;;26.00;83.40;;;;;;5033136;28;20128;-66
2022/07/12 10:38:12;;;;;;;0.60;0.50;;;26.50;83.30;;;;;;5031511;28;20474;-74
2022/07/12 10:40:46;;;;;;;3.90;0.80;;;26.70;80.50;;;;;;5042797;28;20045;-78
2022/07/12 10:43:14;;;;;;;2.00;0.70;;;26.50;81.80;;;;;;5031101;28;20044;-66
2022/07/12 10:45:41;;;;;;;3.28;0.88;;;26.50;81.00;;;;;;5043341;28;20426;-66
2022/07/12 10:48:18;;;;;;;2.35;1.33;;;27.10;83.80;;;;;;5051529;28;20045;-67
2022/07/12 10:50:55;;;;;;;0.93;0.68;;;27.00;82.30;;;;;;5046033;28;20060;-66
2022/07/12 10:53:26;;;;;;;4.38;0.80;;;26.90;82.80;;;;;;5040592;28;20117;-67
2022/07/12 10:56:08;;;;;;;1.63;0.82;;;27.00;81.30;;;;;;5050810;28;20040;-72
2022/07/12 10:58:41;;;;;;;1.90;0.68;;;26.70;82.80;;;;;;5039846;28;20119;-66
2022/07/12 11:01:18;;;;;;;5.22;0.90;;;26.80;81.30;;;;;;5031029;28;20127;-66
2022/07/12 11:03:49;;;;;;;1.73;0.70;;;27.10;82.10;;;;;;5031464;28;20520;-68
2022/07/12 11:06:24;;;;;;;1.30;0.60;;;27.00;82.20;;;;;;5037125;28;20094;-67
2022/07/12 11:08:55;;;;;;;1.05;0.75;;;26.90;81.70;;;;;;5034046;28;20045;-76
2022/07/12 11:11:21;;;;;;;2.58;0.85;;;27.00;81.20;;;;;;5040105;28;20037;-66
2022/07/12 11:13:47;;;;;;;3.15;0.80;;;26.90;81.90;;;;;;5039462;28;20045;-66
2022/07/12 11:16:13;;;;;;;0.93;0.80;;;26.80;81.70;;;;;;5042083;28;20041;-66
2022/07/12 11:18:39;;;;;;;0.90;0.80;;;26.70;80.90;;;;;;5034218;28;20048;-67
2022/07/12 11:21:06;;;;;;;0.90;0.80;;;26.80;81.30;;;;;;5035640;28;20132;-66
2022/07/12 11:23:32;;;;;;;1.73;0.98;;;27.00;79.60;;;;;;5051020;28;20036;-66
2022/07/12 11:26:00;;;;;;;2.10;0.80;;;26.90;79.70;;;;;;5046266;28;20044;-66
2022/07/12 11:28:29;;;;;;;1.05;0.90;;;27.00;81.50;;;;;;5035679;28;20471;-66
2022/07/12 11:31:03;;;;;;;1.55;0.90;;;27.00;80.40;;;;;;5032151;28;20041;-66
2022/07/12 11:33:36;;;;;;;1.35;0.80;;;27.20;80.10;;;;;;5032115;28;20456;-66
2022/07/12 11:36:05;;;;;;;2.58;0.70;;;27.40;79.70;;;;;;5030874;28;20046;-65
2022/07/12 11:38:31;;;;;;;4.15;0.60;;;27.00;77.90;;;;;;5036963;28;20125;-65
2022/07/12 11:40:59;;;;;;;3.45;0.90;;;27.50;78.50;;;;;;5045742;28;20040;-65
2022/07/12 11:43:26;;;;;;;2.33;0.73;;;27.30;78.70;;;;;;5030709;28;20037;-64
2022/07/12 11:45:53;;;;;;;2.15;0.75;;;27.60;81.30;;;;;;5030616;28;20504;-65
2022/07/12 11:48:20;;;;;;;1.17;0.80;;;27.20;79.10;;;;;;5030347;28;20092;-65
2022/07/12 11:50:47;;;;;;;0.98;0.75;;;27.60;79.50;;;;;;5033229;28;20542;-65
2022/07/12 11:53:17;;;;;;;5.70;1.02;;;;;;;;;;5028955;28;20091;-65
2022/07/12 11:55:52;;;;;;;3.67;1.05;;;27.10;77.20;;;;;;5031721;28;20041;-66
2022/07/12 11:58:18;;;;;;;9.43;5.25;;;27.20;78.70;;;;;;5032339;28;20416;-66
2022/07/12 12:00:45;;;;;;;4.38;1.98;;;27.50;79.00;;;;;;5031938;28;20037;-66
2022/07/12 12:03:12;;;;;;;5.53;1.45;;;27.60;79.80;;;;;;5032427;28;20053;-65
2022/07/12 12:05:38;;;;;;;3.17;1.38;;;28.00;81.30;;;;;;5031971;28;20505;-68
2022/07/12 12:08:05;;;;;;;1.02;0.73;;;27.90;78.30;;;;;;5032111;28;20094;-66
2022/07/12 12:10:31;;;;;;;2.28;0.70;;;27.90;78.40;;;;;;5031711;28;20076;-66
2022/07/12 12:13:00;;;;;;;1.55;0.73;;;27.80;79.20;;;;;;5032519;28;20081;-73
2022/07/12 12:15:33;;;;;;;2.75;0.90;;;27.70;79.40;;;;;;5032310;28;20404;-67
2022/07/12 12:18:06;;;;;;;1.02;0.82;;;27.90;78.80;;;;;;5032145;28;20050;-66
2022/07/12 12:20:34;;;;;;;1.60;0.88;;;27.60;78.30;;;;;;5032149;28;20037;-66
2022/07/12 12:23:02;;;;;;;2.53;1.33;;;27.60;78.90;;;;;;5032153;28;20053;-66
2022/07/12 12:25:29;;;;;;;1.85;1.25;;;27.60;78.90;;;;;;5032346;28;20049;-65
2022/07/12 12:28:04;;;;;;;1.48;0.82;;;28.00;78.90;;;;;;5032341;28;20053;-66
2022/07/12 12:30:33;;;;;;;0.73;0.60;;;28.00;77.60;;;;;;5032551;28;20103;-65
2022/07/12 12:33:01;;;;;;;2.88;0.70;;;27.70;78.30;;;;;;5033827;28;20099;-66
2022/07/12 12:35:34;;;;;;;1.92;0.70;;;27.10;78.50;;;;;;5035919;28;20040;-65
2022/07/12 12:38:02;;;;;;;2.33;0.70;;;27.20;78.70;;;;;;5035361;28;20480;-65
2022/07/12 12:40:31;;;;;;;1.58;0.80;;;27.60;78.70;;;;;;5035049;28;20113;-66
2022/07/12 12:43:17;;;;;;;1.40;0.70;;;27.50;78.00;;;;;;5035754;28;20132;-65
2022/07/12 12:45:54;;;;;;;2.10;0.60;;;27.60;77.50;;;;;;5035713;28;20048;-68
2022/07/12 12:48:28;;;;;;;2.00;0.80;;;27.50;78.70;;;;;;5024501;28;20052;-65
2022/07/12 12:51:02;;;;;;;7.03;0.73;;;27.60;77.20;;;;;;5014063;28;20405;-72
2022/07/12 12:53:28;;;;;;;2.80;1.00;;;27.80;78.60;;;;;;5021168;28;20111;-66
2022/07/12 12:55:55;;;;;;;1.90;1.00;;;27.90;78.30;;;;;;5033769;28;20073;-65
2022/07/12 12:58:24;;;;;;;2.25;0.80;;;27.80;76.80;;;;;;5036691;28;20037;-67
2022/07/12 13:00:55;;;;;;;2.38;0.90;;;28.10;77.70;;;;;;5019388;28;20049;-66
2022/07/12 13:03:24;;;;;;;0.95;0.85;;;28.10;78.80;;;;;;5017993;28;20037;-65
2022/07/12 13:05:50;;;;;;;1.02;0.55;;;28.00;77.90;;;;;;5020051;28;20100;-66